createdAt,value
2023-03-22T00:01:40.828Z,100307.00
2023-03-22T00:04:09.860Z,100292.00
2023-03-22T00:06:37.808Z,100297.00
2023-03-22T00:09:05.706Z,100294.00
2023-03-22T00:11:33.443Z,100299.00
2023-03-22T00:14:01.335Z,100297.00
2023-03-22T00:16:29.201Z,100296.00
2023-03-22T00:18:56.889Z,100301.00
2023-03-22T00:21:25.982Z,100301.00
2023-03-22T00:23:53.740Z,100292.00
2023-03-22T00:26:21.594Z,100289.00
2023-03-22T00:28:49.495Z,100291.00
2023-03-22T00:31:17.337Z,100287.00
2023-03-22T00:33:45.013Z,100286.00
2023-03-22T00:36:14.008Z,100288.00
2023-03-22T00:38:44.245Z,100285.00
2023-03-22T00:41:14.080Z,100279.00
2023-03-22T00:43:42.177Z,100278.00
2023-03-22T00:46:10.771Z,100280.00
2023-03-22T00:48:38.795Z,100265.00
2023-03-22T00:51:06.851Z,100259.00
2023-03-22T00:53:36.332Z,100268.00
2023-03-22T00:56:06.769Z,100254.00
2023-03-22T00:58:34.916Z,100261.00
2023-03-22T01:01:02.599Z,100259.00
2023-03-22T01:03:30.332Z,100259.00
2023-03-22T01:05:58.079Z,100261.00
2023-03-22T01:08:25.782Z,100253.00
2023-03-22T01:10:53.509Z,100243.00
2023-03-22T01:13:22.646Z,100243.00
2023-03-22T01:15:51.434Z,100252.00
2023-03-22T01:18:19.766Z,100246.00
2023-03-22T01:20:47.539Z,100246.00
2023-03-22T01:23:15.311Z,100231.00
2023-03-22T01:25:43.038Z,100241.00
2023-03-22T01:28:10.706Z,100233.00
2023-03-22T01:30:41.771Z,100222.00
2023-03-22T01:33:09.935Z,100232.00
2023-03-22T01:35:37.845Z,100211.00
2023-03-22T01:38:05.578Z,100220.00
2023-03-22T01:40:33.862Z,100219.00
2023-03-22T01:43:01.555Z,100217.00
2023-03-22T01:45:47.658Z,100219.00
2023-03-22T01:48:28.871Z,100215.00
2023-03-22T01:51:03.915Z,100215.00
2023-03-22T01:53:34.740Z,100208.00
2023-03-22T01:56:03.501Z,100213.00
2023-03-22T01:58:32.954Z,100206.00
2023-03-22T02:01:02.196Z,100209.00
2023-03-22T02:03:37.821Z,100204.00
2023-03-22T02:06:05.761Z,100200.00
2023-03-22T02:08:33.965Z,100195.00
2023-03-22T02:11:04.135Z,100198.00
2023-03-22T02:13:42.823Z,100196.00
2023-03-22T02:16:25.802Z,100192.00
2023-03-22T02:19:08.257Z,100195.00
2023-03-22T02:22:01.337Z,100192.00
2023-03-22T02:24:56.242Z,100186.00
2023-03-22T02:27:35.274Z,100187.00
2023-03-22T02:30:26.105Z,100195.00
2023-03-22T02:33:25.681Z,100193.00
2023-03-22T02:36:22.282Z,100191.00
2023-03-22T02:39:17.389Z,100176.00
2023-03-22T02:41:58.651Z,100184.00
2023-03-22T02:44:30.381Z,100174.00
2023-03-22T02:47:03.267Z,100172.00
2023-03-22T02:49:37.036Z,100164.00
2023-03-22T02:52:12.564Z,100168.00
2023-03-22T02:54:46.764Z,100175.00
2023-03-22T02:57:20.491Z,100174.00
2023-03-22T02:59:49.651Z,100174.00
2023-03-22T03:02:19.574Z,100171.00
2023-03-22T03:04:49.740Z,100169.00
2023-03-22T03:07:21.747Z,100170.00
2023-03-22T03:09:52.143Z,100165.00
2023-03-22T03:12:21.899Z,100174.00
2023-03-22T03:14:49.627Z,100173.00
2023-03-22T03:17:29.978Z,100162.00
2023-03-22T03:20:14.321Z,100172.00
2023-03-22T03:22:52.296Z,100153.00
2023-03-22T03:25:27.925Z,100163.00
2023-03-22T03:28:03.134Z,100161.00
2023-03-22T03:30:35.658Z,100160.00
2023-03-22T03:33:09.198Z,100169.00
2023-03-22T03:35:40.852Z,100161.00
2023-03-22T03:38:11.781Z,100167.00
2023-03-22T03:40:44.406Z,100159.00
2023-03-22T03:43:13.418Z,100156.00
2023-03-22T03:45:41.825Z,100159.00
2023-03-22T03:48:12.509Z,100151.00
2023-03-22T03:50:40.668Z,100154.00
2023-03-22T03:53:08.559Z,100144.00
2023-03-22T03:55:37.546Z,100142.00
2023-03-22T03:58:06.862Z,100149.00
2023-03-22T04:00:34.586Z,100137.00
2023-03-22T04:03:02.307Z,100133.00
2023-03-22T04:05:29.942Z,100149.00
2023-03-22T04:07:57.721Z,100144.00
2023-03-22T04:10:25.744Z,100133.00
2023-03-22T04:12:53.455Z,100135.00
2023-03-22T04:15:22.628Z,100132.00
2023-03-22T04:17:51.117Z,100136.00
2023-03-22T04:20:19.563Z,100123.00
2023-03-22T04:22:48.406Z,100130.00
2023-03-22T04:25:18.239Z,100129.00
2023-03-22T04:27:51.339Z,100122.00
2023-03-22T04:30:20.420Z,100127.00
2023-03-22T04:32:50.067Z,100126.00
2023-03-22T04:35:18.200Z,100123.00
2023-03-22T04:37:45.890Z,100126.00
2023-03-22T04:40:17.055Z,100123.00
2023-03-22T04:42:45.496Z,100119.00
2023-03-22T04:45:13.835Z,100124.00
2023-03-22T04:47:41.871Z,100116.00
2023-03-22T04:50:11.656Z,100117.00
2023-03-22T04:52:39.396Z,100114.00
2023-03-22T04:55:07.494Z,100117.00
2023-03-22T04:57:35.727Z,100118.00
2023-03-22T05:00:06.561Z,100117.00
2023-03-22T05:02:34.268Z,100127.00
2023-03-22T05:05:01.967Z,100112.00
2023-03-22T05:07:31.088Z,100119.00
2023-03-22T05:09:58.769Z,100107.00
2023-03-22T05:12:27.026Z,100110.00
2023-03-22T05:14:54.915Z,100113.00
2023-03-22T05:17:22.782Z,100121.00
2023-03-22T05:19:52.267Z,100122.00
2023-03-22T05:22:22.380Z,100118.00
2023-03-22T05:24:51.778Z,100113.00
2023-03-22T05:27:31.454Z,100113.00
2023-03-22T05:29:59.391Z,100117.00
2023-03-22T05:32:29.220Z,100112.00
2023-03-22T05:34:57.280Z,100117.00
2023-03-22T05:37:25.386Z,100106.00
2023-03-22T05:39:54.656Z,100105.00
2023-03-22T05:42:22.810Z,100102.00
2023-03-22T05:44:51.327Z,100108.00
2023-03-22T05:47:18.981Z,100117.00
2023-03-22T05:49:46.944Z,100108.00
2023-03-22T05:52:14.726Z,100100.00
2023-03-22T05:54:42.513Z,100102.00
2023-03-22T05:57:11.610Z,100109.00
2023-03-22T05:59:39.512Z,100097.00
2023-03-22T06:02:07.256Z,100093.00
2023-03-22T06:04:35.031Z,100090.00
2023-03-22T06:07:02.898Z,100086.00
2023-03-22T06:09:30.915Z,100085.00
2023-03-22T06:11:59.541Z,100081.00
2023-03-22T06:14:28.618Z,100064.00
2023-03-22T06:16:56.325Z,100069.00
2023-03-22T06:19:25.638Z,100065.00
2023-03-22T06:21:54.778Z,100074.00
2023-03-22T06:24:22.862Z,100075.00
2023-03-22T06:26:51.348Z,100070.00
2023-03-22T06:29:19.033Z,100078.00
2023-03-22T06:31:48.297Z,100070.00
2023-03-22T06:34:16.007Z,100075.00
2023-03-22T06:36:43.746Z,100078.00
2023-03-22T06:39:11.507Z,100067.00
2023-03-22T06:41:39.222Z,100079.00
2023-03-22T06:44:07.060Z,100064.00
2023-03-22T06:46:34.845Z,100076.00
2023-03-22T06:49:03.874Z,100077.00
2023-03-22T06:51:31.633Z,100081.00
2023-03-22T06:53:59.514Z,100074.00
2023-03-22T06:56:27.285Z,100078.00
2023-03-22T06:58:57.942Z,100076.00
2023-03-22T07:01:26.554Z,100070.00
2023-03-22T07:03:54.231Z,100070.00
2023-03-22T07:06:23.386Z,100076.00
2023-03-22T07:08:52.162Z,100076.00
2023-03-22T07:11:20.265Z,100084.00
2023-03-22T07:13:47.959Z,100076.00
2023-03-22T07:16:17.090Z,100073.00
2023-03-22T07:18:46.492Z,100067.00
2023-03-22T07:21:14.251Z,100066.00
2023-03-22T07:23:43.580Z,100078.00
2023-03-22T07:26:13.235Z,100073.00
2023-03-22T07:28:44.459Z,100075.00
2023-03-22T07:31:13.340Z,100076.00
2023-03-22T07:33:41.810Z,100084.00
2023-03-22T07:36:11.046Z,100078.00
2023-03-22T07:38:38.834Z,100081.00
2023-03-22T07:41:08.177Z,100076.00
2023-03-22T07:43:47.473Z,100070.00
2023-03-22T07:46:18.787Z,100074.00
2023-03-22T07:48:46.497Z,100067.00
2023-03-22T07:51:14.205Z,100055.00
2023-03-22T07:53:41.898Z,100053.00
2023-03-22T07:56:11.531Z,100061.00
2023-03-22T07:58:39.431Z,100063.00
2023-03-22T08:01:09.233Z,100055.00
2023-03-22T08:03:38.324Z,100045.00
2023-03-22T08:06:08.128Z,100050.00
2023-03-22T08:08:36.987Z,100040.00
2023-03-22T08:11:04.868Z,100060.00
2023-03-22T08:13:34.349Z,100045.00
2023-03-22T08:16:02.124Z,100044.00
2023-03-22T08:18:29.949Z,100049.00
2023-03-22T08:20:59.034Z,100049.00
2023-03-22T08:23:40.569Z,100051.00
2023-03-22T08:26:10.342Z,100050.00
2023-03-22T08:28:39.495Z,100040.00
2023-03-22T08:31:13.913Z,100037.00
2023-03-22T08:33:43.369Z,100037.00
2023-03-22T08:36:15.462Z,100035.00
2023-03-22T08:38:45.083Z,100040.00
2023-03-22T08:41:13.090Z,100029.00
2023-03-22T08:43:42.239Z,100027.00
2023-03-22T08:46:10.171Z,100023.00
2023-03-22T08:48:38.460Z,100016.00
2023-03-22T08:51:07.316Z,100023.00
2023-03-22T08:53:35.006Z,100012.00
2023-03-22T08:56:03.624Z,100005.00
2023-03-22T08:58:31.498Z,100001.00
2023-03-22T09:01:00.673Z,99999.00
2023-03-22T09:03:28.467Z,100009.00
2023-03-22T09:05:56.231Z,100010.00
2023-03-22T09:08:23.896Z,99999.00
2023-03-22T09:10:52.293Z,99999.00
2023-03-22T09:13:20.966Z,100009.00
2023-03-22T09:15:49.121Z,100005.00
2023-03-22T09:18:18.242Z,100001.00
2023-03-22T09:20:46.187Z,99989.00
2023-03-22T09:23:15.374Z,99995.00
2023-03-22T09:25:45.347Z,99976.00
2023-03-22T09:28:13.629Z,99986.00
2023-03-22T09:30:41.652Z,99981.00
2023-03-22T09:33:09.871Z,99982.00
2023-03-22T09:35:42.557Z,99975.00
2023-03-22T09:38:12.145Z,99964.00
2023-03-22T09:40:47.618Z,99969.00
2023-03-22T09:43:16.695Z,99946.00
2023-03-22T09:45:49.455Z,99953.00
2023-03-22T09:48:21.641Z,99949.00
2023-03-22T09:50:54.373Z,99950.00
2023-03-22T09:53:24.668Z,99946.00
2023-03-22T09:56:00.168Z,99946.00
2023-03-22T09:58:33.940Z,99939.00
2023-03-22T10:01:05.692Z,99948.00
2023-03-22T10:03:57.990Z,99945.00
2023-03-22T10:06:29.580Z,99934.00
2023-03-22T10:09:03.818Z,99938.00
2023-03-22T10:11:41.674Z,99925.00
2023-03-22T10:14:27.665Z,99928.00
2023-03-22T10:16:57.140Z,99933.00
2023-03-22T10:19:31.363Z,99931.00
2023-03-22T10:22:03.024Z,99914.00
2023-03-22T10:24:33.751Z,99921.00
2023-03-22T10:27:01.924Z,99925.00
2023-03-22T10:29:35.298Z,99908.00
2023-03-22T10:32:15.155Z,99911.00
2023-03-22T10:34:43.918Z,99912.00
2023-03-22T10:37:16.365Z,99914.00
2023-03-22T10:39:48.325Z,99910.00
2023-03-22T10:42:20.317Z,99903.00
2023-03-22T10:44:51.314Z,99912.00
2023-03-22T10:47:26.327Z,99916.00
2023-03-22T10:49:57.127Z,99920.00
2023-03-22T10:52:39.488Z,99912.00
2023-03-22T10:55:11.247Z,99914.00
2023-03-22T10:57:40.021Z,99918.00
2023-03-22T11:00:11.557Z,99918.00
2023-03-22T11:02:48.081Z,99922.00
2023-03-22T11:05:25.776Z,99920.00
2023-03-22T11:07:55.356Z,99922.00
2023-03-22T11:10:27.986Z,99906.00
2023-03-22T11:13:11.583Z,99902.00
2023-03-22T11:15:42.686Z,99911.00
2023-03-22T11:18:15.743Z,99893.00
2023-03-22T11:20:53.101Z,99888.00
2023-03-22T11:23:22.720Z,99899.00
2023-03-22T11:25:52.047Z,99888.00
2023-03-22T11:28:22.059Z,99889.00
2023-03-22T11:31:01.794Z,99899.00
2023-03-22T11:33:30.409Z,99892.00
2023-03-22T11:35:59.811Z,99904.00
2023-03-22T11:38:31.499Z,99918.00
2023-03-22T11:41:02.472Z,99905.00
2023-03-22T11:43:35.430Z,99908.00
2023-03-22T11:46:04.195Z,99891.00
2023-03-22T11:48:34.576Z,99895.00
2023-03-22T11:51:09.390Z,99908.00
2023-03-22T11:53:41.269Z,99907.00
2023-03-22T11:56:12.045Z,99909.00
2023-03-22T11:58:56.320Z,99907.00
2023-03-22T12:01:39.793Z,99892.00
2023-03-22T12:04:12.319Z,99904.00
2023-03-22T12:06:42.552Z,99901.00
2023-03-22T12:09:23.856Z,99911.00
2023-03-22T12:11:54.560Z,99903.00
2023-03-22T12:14:25.928Z,99901.00
2023-03-22T12:16:58.866Z,99901.00
2023-03-22T12:19:50.986Z,99903.00
2023-03-22T12:22:22.447Z,99902.00
2023-03-22T12:24:51.649Z,99906.00
2023-03-22T12:27:23.214Z,99916.00
2023-03-22T12:30:00.380Z,99905.00
2023-03-22T12:32:31.628Z,99902.00
2023-03-22T12:35:14.157Z,99908.00
2023-03-22T12:37:48.454Z,99910.00
2023-03-22T12:40:23.461Z,99912.00
2023-03-22T12:43:01.511Z,99908.00
2023-03-22T12:45:31.771Z,99903.00
2023-03-22T12:48:05.810Z,99895.00
2023-03-22T12:50:37.717Z,99893.00
2023-03-22T12:53:06.607Z,99901.00
2023-03-22T12:55:39.332Z,99892.00
2023-03-22T12:58:08.692Z,99889.00
2023-03-22T13:00:41.657Z,99895.00
2023-03-22T13:03:24.095Z,99876.00
2023-03-22T13:06:02.414Z,99890.00
2023-03-22T13:09:16.869Z,99889.00
2023-03-22T13:11:48.720Z,99881.00
2023-03-22T13:14:52.386Z,99887.00
2023-03-22T13:17:39.385Z,99875.00
2023-03-22T13:20:34.073Z,99870.00
2023-03-22T13:23:11.911Z,99872.00
2023-03-22T13:25:58.847Z,99881.00
2023-03-22T13:28:30.856Z,99878.00
2023-03-22T13:31:00.078Z,99874.00
2023-03-22T13:33:29.700Z,99867.00
2023-03-22T13:35:59.717Z,99869.00
2023-03-22T13:38:29.689Z,99868.00
2023-03-22T13:41:04.368Z,99870.00
2023-03-22T13:43:36.243Z,99871.00
2023-03-22T13:46:12.212Z,99868.00
2023-03-22T13:48:52.281Z,99859.00
2023-03-22T13:51:23.454Z,99875.00
2023-03-22T13:54:00.249Z,99858.00
2023-03-22T13:56:34.486Z,99866.00
2023-03-22T13:59:05.328Z,99865.00
2023-03-22T14:01:36.214Z,99861.00
2023-03-22T14:04:10.143Z,99857.00
2023-03-22T14:06:46.042Z,99861.00
2023-03-22T14:09:22.038Z,99876.00
2023-03-22T14:11:56.559Z,99873.00
2023-03-22T14:14:30.797Z,99879.00
2023-03-22T14:17:05.419Z,99873.00
2023-03-22T14:19:35.875Z,99884.00
